Camarillo, California
Current Conditions -  °F | °C
As of 6:55 PM on Monday 20 Oct 2014 (Local Time) from KCMA Reporting Station
Clear Clear  
Wind Chill: 68°   Ceiling: Unl
Heat Index: 68°   Visibility: 10mi
Dew Point: 60°   Wind: 3mph
Humidity: 76%   Direction: 180°S
Pressure: 29.88"   Gusts: NA
Location:  34.22°N, 119.05°W
Report Text: KCMA 210155Z 18003KT 10SM CLR 20/16 A2988 RMK AO2 SLP126 T02000156
Loading
Personal Weather Stations






























Interactive Weather Map
Tropical Storm Tracking
New forecast layout! Learn more

10-Day Weather Forecast

Advertisements
Track Severe Weather on mobile